sensor_id;sensor_type;location;lat;lon;timestamp;temperature;humidity
54124;DHT22;55741;53.252;5.788;2022-10-16T00:02:01;13.00;99.90
54124;DHT22;55741;53.252;5.788;2022-10-16T00:04:27;13.00;99.90
54124;DHT22;55741;53.252;5.788;2022-10-16T00:06:53;13.00;99.90
54124;DHT22;55741;53.252;5.788;2022-10-16T00:09:19;13.00;99.90
54124;DHT22;55741;53.252;5.788;2022-10-16T00:11:45;13.00;99.90
54124;DHT22;55741;53.252;5.788;2022-10-16T00:14:13;13.00;99.90
54124;DHT22;55741;53.252;5.788;2022-10-16T00:16:39;13.00;99.90
54124;DHT22;55741;53.252;5.788;2022-10-16T00:19:05;13.00;99.90
54124;DHT22;55741;53.252;5.788;2022-10-16T00:21:31;12.90;99.90
54124;DHT22;55741;53.252;5.788;2022-10-16T00:24:03;13.00;99.90
54124;DHT22;55741;53.252;5.788;2022-10-16T00:26:31;13.00;99.90
54124;DHT22;55741;53.252;5.788;2022-10-16T00:28:57;13.00;99.90
54124;DHT22;55741;53.252;5.788;2022-10-16T00:31:24;13.00;99.90
54124;DHT22;55741;53.252;5.788;2022-10-16T00:33:50;13.00;99.90
54124;DHT22;55741;53.252;5.788;2022-10-16T00:36:21;13.00;99.90
54124;DHT22;55741;53.252;5.788;2022-10-16T00:38:53;12.90;99.90
54124;DHT22;55741;53.252;5.788;2022-10-16T00:41:23;13.00;99.90
54124;DHT22;55741;53.252;5.788;2022-10-16T00:43:52;13.00;99.90
54124;DHT22;55741;53.252;5.788;2022-10-16T00:46:51;13.00;99.90
54124;DHT22;55741;53.252;5.788;2022-10-16T00:49:15;12.90;99.90
54124;DHT22;55741;53.252;5.788;2022-10-16T00:51:47;12.90;99.90
54124;DHT22;55741;53.252;5.788;2022-10-16T00:54:19;12.90;99.90
54124;DHT22;55741;53.252;5.788;2022-10-16T00:56:47;12.90;99.90
54124;DHT22;55741;53.252;5.788;2022-10-16T00:59:19;12.90;99.90
54124;DHT22;55741;53.252;5.788;2022-10-16T01:01:46;12.90;99.90
54124;DHT22;55741;53.252;5.788;2022-10-16T01:04:12;12.90;99.90
54124;DHT22;55741;53.252;5.788;2022-10-16T01:06:56;12.90;99.90
54124;DHT22;55741;53.252;5.788;2022-10-16T01:09:39;13.00;99.90
54124;DHT22;55741;53.252;5.788;2022-10-16T01:12:18;13.00;99.90
54124;DHT22;55741;53.252;5.788;2022-10-16T01:14:58;13.00;99.90
54124;DHT22;55741;53.252;5.788;2022-10-16T01:17:37;13.10;99.90
54124;DHT22;55741;53.252;5.788;2022-10-16T01:20:26;13.10;99.90
54124;DHT22;55741;53.252;5.788;2022-10-16T01:23:05;13.20;99.90
54124;DHT22;55741;53.252;5.788;2022-10-16T01:25:53;13.20;99.90
54124;DHT22;55741;53.252;5.788;2022-10-16T01:28:26;13.20;99.90
54124;DHT22;55741;53.252;5.788;2022-10-16T01:30:57;13.30;99.90
54124;DHT22;55741;53.252;5.788;2022-10-16T01:33:28;13.30;99.90
54124;DHT22;55741;53.252;5.788;2022-10-16T01:35:59;13.30;99.90
54124;DHT22;55741;53.252;5.788;2022-10-16T01:38:35;13.30;99.90
54124;DHT22;55741;53.252;5.788;2022-10-16T01:41:11;13.30;99.90
54124;DHT22;55741;53.252;5.788;2022-10-16T01:43:48;13.30;99.90
54124;DHT22;55741;53.252;5.788;2022-10-16T01:46:18;13.30;99.90
54124;DHT22;55741;53.252;5.788;2022-10-16T01:48:46;13.40;99.90
54124;DHT22;55741;53.252;5.788;2022-10-16T01:51:15;13.30;99.90
54124;DHT22;55741;53.252;5.788;2022-10-16T01:53:45;13.30;99.90
54124;DHT22;55741;53.252;5.788;2022-10-16T01:56:14;13.30;99.90
54124;DHT22;55741;53.252;5.788;2022-10-16T01:58:54;13.40;99.90
54124;DHT22;55741;53.252;5.788;2022-10-16T02:01:23;13.40;99.90
54124;DHT22;55741;53.252;5.788;2022-10-16T02:03:52;13.40;99.90
54124;DHT22;55741;53.252;5.788;2022-10-16T02:06:19;13.40;99.90
54124;DHT22;55741;53.252;5.788;2022-10-16T02:08:46;13.30;99.90
54124;DHT22;55741;53.252;5.788;2022-10-16T02:11:12;13.20;99.90
54124;DHT22;55741;53.252;5.788;2022-10-16T02:13:48;13.20;99.90
54124;DHT22;55741;53.252;5.788;2022-10-16T02:16:15;13.20;99.90
54124;DHT22;55741;53.252;5.788;2022-10-16T02:18:42;13.10;99.90
54124;DHT22;55741;53.252;5.788;2022-10-16T02:21:28;13.10;99.90
54124;DHT22;55741;53.252;5.788;2022-10-16T02:24:38;13.00;99.90
54124;DHT22;55741;53.252;5.788;2022-10-16T02:27:14;13.00;99.90
54124;DHT22;55741;53.252;5.788;2022-10-16T02:29:42;12.90;99.90
54124;DHT22;55741;53.252;5.788;2022-10-16T02:32:13;12.80;99.90
54124;DHT22;55741;53.252;5.788;2022-10-16T02:34:41;12.80;99.90
54124;DHT22;55741;53.252;5.788;2022-10-16T02:37:07;12.70;99.90
54124;DHT22;55741;53.252;5.788;2022-10-16T02:39:34;12.70;99.90
54124;DHT22;55741;53.252;5.788;2022-10-16T02:42:00;12.60;99.90
54124;DHT22;55741;53.252;5.788;2022-10-16T02:44:29;12.60;99.90
54124;DHT22;55741;53.252;5.788;2022-10-16T02:46:55;12.60;99.90
54124;DHT22;55741;53.252;5.788;2022-10-16T02:49:21;12.70;99.90
54124;DHT22;55741;53.252;5.788;2022-10-16T02:51:47;12.60;99.90
54124;DHT22;55741;53.252;5.788;2022-10-16T02:54:12;12.60;99.90
54124;DHT22;55741;53.252;5.788;2022-10-16T02:56:38;12.60;99.90
54124;DHT22;55741;53.252;5.788;2022-10-16T02:59:04;12.60;99.90
54124;DHT22;55741;53.252;5.788;2022-10-16T03:01:30;12.60;99.90
54124;DHT22;55741;53.252;5.788;2022-10-16T03:03:56;12.60;99.90
54124;DHT22;55741;53.252;5.788;2022-10-16T03:06:22;12.60;99.90
54124;DHT22;55741;53.252;5.788;2022-10-16T03:08:48;12.60;99.90
54124;DHT22;55741;53.252;5.788;2022-10-16T03:11:14;12.60;99.90
54124;DHT22;55741;53.252;5.788;2022-10-16T03:13:40;12.60;99.90
54124;DHT22;55741;53.252;5.788;2022-10-16T03:16:05;12.60;99.90
54124;DHT22;55741;53.252;5.788;2022-10-16T03:18:31;12.60;99.90
54124;DHT22;55741;53.252;5.788;2022-10-16T03:20:57;12.60;99.90
54124;DHT22;55741;53.252;5.788;2022-10-16T03:23:23;12.60;99.90
54124;DHT22;55741;53.252;5.788;2022-10-16T03:25:48;12.60;99.90
54124;DHT22;55741;53.252;5.788;2022-10-16T03:28:14;12.50;99.90
54124;DHT22;55741;53.252;5.788;2022-10-16T03:30:40;12.50;99.90
54124;DHT22;55741;53.252;5.788;2022-10-16T03:33:06;12.50;99.90
54124;DHT22;55741;53.252;5.788;2022-10-16T03:35:32;12.50;99.90
54124;DHT22;55741;53.252;5.788;2022-10-16T03:37:58;12.50;99.90
54124;DHT22;55741;53.252;5.788;2022-10-16T03:40:24;12.40;99.90
54124;DHT22;55741;53.252;5.788;2022-10-16T03:42:50;12.40;99.90
54124;DHT22;55741;53.252;5.788;2022-10-16T03:45:17;12.40;99.90
54124;DHT22;55741;53.252;5.788;2022-10-16T03:47:43;12.40;99.90
54124;DHT22;55741;53.252;5.788;2022-10-16T03:50:09;12.40;99.90
54124;DHT22;55741;53.252;5.788;2022-10-16T03:52:35;12.30;99.90
54124;DHT22;55741;53.252;5.788;2022-10-16T03:55:01;12.30;99.90
54124;DHT22;55741;53.252;5.788;2022-10-16T03:57:26;12.30;99.90
54124;DHT22;55741;53.252;5.788;2022-10-16T03:59:52;12.30;99.90
54124;DHT22;55741;53.252;5.788;2022-10-16T04:02:18;12.30;99.90
54124;DHT22;55741;53.252;5.788;2022-10-16T04:04:44;12.40;99.90
54124;DHT22;55741;53.252;5.788;2022-10-16T04:07:10;12.40;99.90
54124;DHT22;55741;53.252;5.788;2022-10-16T04:09:35;12.40;99.90
54124;DHT22;55741;53.252;5.788;2022-10-16T04:12:01;12.50;99.90
54124;DHT22;55741;53.252;5.788;2022-10-16T04:14:27;12.50;99.90
54124;DHT22;55741;53.252;5.788;2022-10-16T04:16:53;12.50;99.90
54124;DHT22;55741;53.252;5.788;2022-10-16T04:19:19;12.50;99.90
54124;DHT22;55741;53.252;5.788;2022-10-16T04:21:44;12.60;99.90
54124;DHT22;55741;53.252;5.788;2022-10-16T04:24:10;12.60;99.90
54124;DHT22;55741;53.252;5.788;2022-10-16T04:26:37;12.70;99.90
54124;DHT22;55741;53.252;5.788;2022-10-16T04:29:03;12.70;99.90
54124;DHT22;55741;53.252;5.788;2022-10-16T04:31:29;12.70;99.90
54124;DHT22;55741;53.252;5.788;2022-10-16T04:33:55;12.70;99.90
54124;DHT22;55741;53.252;5.788;2022-10-16T04:36:21;12.70;99.90
54124;DHT22;55741;53.252;5.788;2022-10-16T04:38:46;12.80;99.90
54124;DHT22;55741;53.252;5.788;2022-10-16T04:41:12;12.70;99.90
54124;DHT22;55741;53.252;5.788;2022-10-16T04:43:38;12.70;99.90
54124;DHT22;55741;53.252;5.788;2022-10-16T04:46:06;12.80;99.90
54124;DHT22;55741;53.252;5.788;2022-10-16T04:48:32;12.80;99.90
54124;DHT22;55741;53.252;5.788;2022-10-16T04:50:58;12.70;99.90
54124;DHT22;55741;53.252;5.788;2022-10-16T04:53:24;12.70;99.90
54124;DHT22;55741;53.252;5.788;2022-10-16T04:55:50;12.70;99.90
54124;DHT22;55741;53.252;5.788;2022-10-16T04:58:16;12.70;99.90
54124;DHT22;55741;53.252;5.788;2022-10-16T05:00:42;12.70;99.90
54124;DHT22;55741;53.252;5.788;2022-10-16T05:03:09;12.70;99.90
54124;DHT22;55741;53.252;5.788;2022-10-16T05:05:35;12.60;99.90
54124;DHT22;55741;53.252;5.788;2022-10-16T05:08:02;12.70;99.90
54124;DHT22;55741;53.252;5.788;2022-10-16T05:10:28;12.60;99.90
54124;DHT22;55741;53.252;5.788;2022-10-16T05:12:54;12.60;99.90
54124;DHT22;55741;53.252;5.788;2022-10-16T05:15:20;12.60;99.90
54124;DHT22;55741;53.252;5.788;2022-10-16T05:17:45;12.60;99.90
54124;DHT22;55741;53.252;5.788;2022-10-16T05:20:13;12.60;99.90
54124;DHT22;55741;53.252;5.788;2022-10-16T05:22:39;12.60;99.90
54124;DHT22;55741;53.252;5.788;2022-10-16T05:25:05;12.60;99.90
54124;DHT22;55741;53.252;5.788;2022-10-16T05:27:31;12.60;99.90
54124;DHT22;55741;53.252;5.788;2022-10-16T05:29:56;12.60;99.90
54124;DHT22;55741;53.252;5.788;2022-10-16T05:32:22;12.60;99.90
54124;DHT22;55741;53.252;5.788;2022-10-16T05:34:48;12.60;99.90
54124;DHT22;55741;53.252;5.788;2022-10-16T05:37:14;12.50;99.90
54124;DHT22;55741;53.252;5.788;2022-10-16T05:39:40;12.60;99.90
54124;DHT22;55741;53.252;5.788;2022-10-16T05:42:06;12.50;99.90
54124;DHT22;55741;53.252;5.788;2022-10-16T05:44:32;12.50;99.90
54124;DHT22;55741;53.252;5.788;2022-10-16T05:47:00;12.50;99.90
54124;DHT22;55741;53.252;5.788;2022-10-16T05:49:26;12.50;99.90
54124;DHT22;55741;53.252;5.788;2022-10-16T05:51:52;12.40;99.90
54124;DHT22;55741;53.252;5.788;2022-10-16T05:54:18;12.50;99.90
54124;DHT22;55741;53.252;5.788;2022-10-16T05:56:44;12.40;99.90
54124;DHT22;55741;53.252;5.788;2022-10-16T05:59:10;12.50;99.90
54124;DHT22;55741;53.252;5.788;2022-10-16T06:01:36;12.40;99.90
54124;DHT22;55741;53.252;5.788;2022-10-16T06:04:02;12.40;99.90
54124;DHT22;55741;53.252;5.788;2022-10-16T06:06:28;12.40;99.90
54124;DHT22;55741;53.252;5.788;2022-10-16T06:08:56;12.40;99.90
54124;DHT22;55741;53.252;5.788;2022-10-16T06:11:25;12.40;99.90
54124;DHT22;55741;53.252;5.788;2022-10-16T06:13:53;12.40;99.90
54124;DHT22;55741;53.252;5.788;2022-10-16T06:16:19;12.40;99.90
54124;DHT22;55741;53.252;5.788;2022-10-16T06:18:46;12.40;99.90
54124;DHT22;55741;53.252;5.788;2022-10-16T06:21:16;12.40;99.90
54124;DHT22;55741;53.252;5.788;2022-10-16T06:23:42;12.40;99.90
54124;DHT22;55741;53.252;5.788;2022-10-16T06:26:10;12.40;99.90
54124;DHT22;55741;53.252;5.788;2022-10-16T06:28:37;12.40;99.90
54124;DHT22;55741;53.252;5.788;2022-10-16T06:31:04;12.40;99.90
54124;DHT22;55741;53.252;5.788;2022-10-16T06:33:31;12.40;99.90
54124;DHT22;55741;53.252;5.788;2022-10-16T06:36:01;12.40;99.90
54124;DHT22;55741;53.252;5.788;2022-10-16T06:38:28;12.40;99.90
54124;DHT22;55741;53.252;5.788;2022-10-16T06:40:54;12.40;99.90
54124;DHT22;55741;53.252;5.788;2022-10-16T06:43:20;12.50;99.90
54124;DHT22;55741;53.252;5.788;2022-10-16T06:45:56;12.50;99.90
54124;DHT22;55741;53.252;5.788;2022-10-16T06:48:24;12.50;99.90
54124;DHT22;55741;53.252;5.788;2022-10-16T06:51:04;12.60;99.90
54124;DHT22;55741;53.252;5.788;2022-10-16T06:53:32;12.60;99.90
54124;DHT22;55741;53.252;5.788;2022-10-16T06:56:10;12.60;99.90
54124;DHT22;55741;53.252;5.788;2022-10-16T06:58:37;12.60;99.90
54124;DHT22;55741;53.252;5.788;2022-10-16T07:01:03;12.60;99.90
54124;DHT22;55741;53.252;5.788;2022-10-16T07:03:31;12.70;99.90
54124;DHT22;55741;53.252;5.788;2022-10-16T07:06:01;12.70;99.90
54124;DHT22;55741;53.252;5.788;2022-10-16T07:08:27;12.70;99.90
54124;DHT22;55741;53.252;5.788;2022-10-16T07:11:05;12.80;99.90
54124;DHT22;55741;53.252;5.788;2022-10-16T07:13:35;12.80;99.90
54124;DHT22;55741;53.252;5.788;2022-10-16T07:16:10;12.80;99.90
54124;DHT22;55741;53.252;5.788;2022-10-16T07:18:36;12.80;99.90
54124;DHT22;55741;53.252;5.788;2022-10-16T07:21:10;12.80;99.90
54124;DHT22;55741;53.252;5.788;2022-10-16T07:23:36;12.80;99.90
54124;DHT22;55741;53.252;5.788;2022-10-16T07:26:03;12.90;99.90
54124;DHT22;55741;53.252;5.788;2022-10-16T07:28:29;13.00;99.90
54124;DHT22;55741;53.252;5.788;2022-10-16T07:30:55;13.10;99.90
54124;DHT22;55741;53.252;5.788;2022-10-16T07:33:21;13.20;99.90
54124;DHT22;55741;53.252;5.788;2022-10-16T07:35:51;13.30;99.90
54124;DHT22;55741;53.252;5.788;2022-10-16T07:38:18;13.40;99.90
54124;DHT22;55741;53.252;5.788;2022-10-16T07:40:44;13.40;99.90
54124;DHT22;55741;53.252;5.788;2022-10-16T07:43:11;13.50;99.90
54124;DHT22;55741;53.252;5.788;2022-10-16T07:45:37;13.50;99.90
54124;DHT22;55741;53.252;5.788;2022-10-16T07:48:04;13.50;99.90
54124;DHT22;55741;53.252;5.788;2022-10-16T07:50:31;13.50;99.90
54124;DHT22;55741;53.252;5.788;2022-10-16T07:52:57;13.40;99.90
54124;DHT22;55741;53.252;5.788;2022-10-16T07:55:23;13.40;99.90
54124;DHT22;55741;53.252;5.788;2022-10-16T07:57:49;13.40;99.90
54124;DHT22;55741;53.252;5.788;2022-10-16T08:00:14;13.30;99.90
54124;DHT22;55741;53.252;5.788;2022-10-16T08:02:40;13.40;99.90
54124;DHT22;55741;53.252;5.788;2022-10-16T08:05:07;13.30;99.90
54124;DHT22;55741;53.252;5.788;2022-10-16T08:07:33;13.30;99.90
54124;DHT22;55741;53.252;5.788;2022-10-16T08:09:58;13.30;99.90
54124;DHT22;55741;53.252;5.788;2022-10-16T08:12:25;13.30;99.90
54124;DHT22;55741;53.252;5.788;2022-10-16T08:14:51;13.30;99.90
54124;DHT22;55741;53.252;5.788;2022-10-16T08:17:17;13.30;99.90
54124;DHT22;55741;53.252;5.788;2022-10-16T08:19:47;13.30;99.90
54124;DHT22;55741;53.252;5.788;2022-10-16T08:22:13;13.30;99.90
54124;DHT22;55741;53.252;5.788;2022-10-16T08:24:40;13.30;99.90
54124;DHT22;55741;53.252;5.788;2022-10-16T08:27:06;13.40;99.90
54124;DHT22;55741;53.252;5.788;2022-10-16T08:29:33;13.40;99.90
54124;DHT22;55741;53.252;5.788;2022-10-16T08:31:59;13.50;99.90
54124;DHT22;55741;53.252;5.788;2022-10-16T08:34:24;13.50;99.90
54124;DHT22;55741;53.252;5.788;2022-10-16T08:36:53;13.60;99.90
54124;DHT22;55741;53.252;5.788;2022-10-16T08:39:20;13.60;99.90
54124;DHT22;55741;53.252;5.788;2022-10-16T08:41:59;13.60;99.90
54124;DHT22;55741;53.252;5.788;2022-10-16T08:50:19;13.60;99.90
54124;DHT22;55741;53.252;5.788;2022-10-16T08:52:48;13.70;99.90
54124;DHT22;55741;53.252;5.788;2022-10-16T08:57:52;13.80;99.90
54124;DHT22;55741;53.252;5.788;2022-10-16T09:00:18;13.90;99.90
54124;DHT22;55741;53.252;5.788;2022-10-16T09:08:22;14.10;99.90
54124;DHT22;55741;53.252;5.788;2022-10-16T09:11:06;14.20;99.90
54124;DHT22;55741;53.252;5.788;2022-10-16T09:14:11;14.30;99.90
54124;DHT22;55741;53.252;5.788;2022-10-16T09:16:48;14.40;99.90
54124;DHT22;55741;53.252;5.788;2022-10-16T09:19:33;14.40;99.90
54124;DHT22;55741;53.252;5.788;2022-10-16T09:22:10;14.50;99.90
54124;DHT22;55741;53.252;5.788;2022-10-16T09:24:37;14.60;99.90
54124;DHT22;55741;53.252;5.788;2022-10-16T09:27:03;14.70;99.90
54124;DHT22;55741;53.252;5.788;2022-10-16T09:29:29;14.70;99.90
54124;DHT22;55741;53.252;5.788;2022-10-16T09:32:17;14.80;99.90
54124;DHT22;55741;53.252;5.788;2022-10-16T09:35:01;14.80;99.90
54124;DHT22;55741;53.252;5.788;2022-10-16T09:37:28;14.90;99.90
54124;DHT22;55741;53.252;5.788;2022-10-16T09:39:54;14.90;99.90
54124;DHT22;55741;53.252;5.788;2022-10-16T09:42:22;15.00;99.90
54124;DHT22;55741;53.252;5.788;2022-10-16T09:44:51;15.00;99.90
54124;DHT22;55741;53.252;5.788;2022-10-16T09:47:20;15.10;99.90
54124;DHT22;55741;53.252;5.788;2022-10-16T09:49:57;15.10;99.90
54124;DHT22;55741;53.252;5.788;2022-10-16T09:52:25;15.20;99.90
54124;DHT22;55741;53.252;5.788;2022-10-16T09:54:58;15.30;99.90
54124;DHT22;55741;53.252;5.788;2022-10-16T09:57:25;15.40;99.90
54124;DHT22;55741;53.252;5.788;2022-10-16T09:59:53;15.50;99.90
54124;DHT22;55741;53.252;5.788;2022-10-16T10:02:31;15.60;99.90
54124;DHT22;55741;53.252;5.788;2022-10-16T10:04:59;15.50;99.90
54124;DHT22;55741;53.252;5.788;2022-10-16T10:07:28;15.50;99.90
54124;DHT22;55741;53.252;5.788;2022-10-16T10:09:58;15.40;99.90
54124;DHT22;55741;53.252;5.788;2022-10-16T10:12:26;15.50;99.90
54124;DHT22;55741;53.252;5.788;2022-10-16T10:14:57;15.50;99.90
54124;DHT22;55741;53.252;5.788;2022-10-16T10:17:27;15.60;99.90
54124;DHT22;55741;53.252;5.788;2022-10-16T10:19:59;15.70;99.90
54124;DHT22;55741;53.252;5.788;2022-10-16T10:22:32;15.70;99.90
54124;DHT22;55741;53.252;5.788;2022-10-16T10:31:34;16.10;99.90
54124;DHT22;55741;53.252;5.788;2022-10-16T10:39:51;16.20;99.90
54124;DHT22;55741;53.252;5.788;2022-10-16T10:42:31;16.20;99.90
54124;DHT22;55741;53.252;5.788;2022-10-16T10:47:53;16.30;99.90
54124;DHT22;55741;53.252;5.788;2022-10-16T11:02:27;16.70;99.90
54124;DHT22;55741;53.252;5.788;2022-10-16T11:08:00;16.90;99.90
54124;DHT22;55741;53.252;5.788;2022-10-16T11:16:32;17.20;99.90
54124;DHT22;55741;53.252;5.788;2022-10-16T11:19:03;17.20;99.90
54124;DHT22;55741;53.252;5.788;2022-10-16T11:21:48;17.20;99.90
54124;DHT22;55741;53.252;5.788;2022-10-16T11:24:35;17.30;99.90
54124;DHT22;55741;53.252;5.788;2022-10-16T11:27:08;17.30;99.90
54124;DHT22;55741;53.252;5.788;2022-10-16T11:29:35;17.30;99.90
54124;DHT22;55741;53.252;5.788;2022-10-16T11:32:19;17.40;99.90
54124;DHT22;55741;53.252;5.788;2022-10-16T11:34:52;17.40;99.90
54124;DHT22;55741;53.252;5.788;2022-10-16T11:37:40;17.50;99.90
54124;DHT22;55741;53.252;5.788;2022-10-16T11:40:33;17.50;99.90
54124;DHT22;55741;53.252;5.788;2022-10-16T11:43:12;17.50;99.90
54124;DHT22;55741;53.252;5.788;2022-10-16T11:45:50;17.50;99.90
54124;DHT22;55741;53.252;5.788;2022-10-16T11:48:36;17.50;99.90
54124;DHT22;55741;53.252;5.788;2022-10-16T11:57:25;17.70;99.90
54124;DHT22;55741;53.252;5.788;2022-10-16T12:00:00;17.70;99.90
54124;DHT22;55741;53.252;5.788;2022-10-16T12:08:13;17.80;99.90
54124;DHT22;55741;53.252;5.788;2022-10-16T12:10:41;17.80;99.90
54124;DHT22;55741;53.252;5.788;2022-10-16T12:16:24;17.80;99.90
54124;DHT22;55741;53.252;5.788;2022-10-16T12:19:02;17.80;99.90
54124;DHT22;55741;53.252;5.788;2022-10-16T12:21:31;17.90;99.90
54124;DHT22;55741;53.252;5.788;2022-10-16T12:23:58;17.90;99.90
54124;DHT22;55741;53.252;5.788;2022-10-16T12:26:31;18.00;99.90
54124;DHT22;55741;53.252;5.788;2022-10-16T12:31:47;17.90;99.90
54124;DHT22;55741;53.252;5.788;2022-10-16T12:34:29;17.90;99.90
54124;DHT22;55741;53.252;5.788;2022-10-16T12:37:06;17.80;99.90
54124;DHT22;55741;53.252;5.788;2022-10-16T12:39:33;17.70;99.90
54124;DHT22;55741;53.252;5.788;2022-10-16T12:42:19;17.70;99.90
54124;DHT22;55741;53.252;5.788;2022-10-16T12:44:46;17.70;99.90
54124;DHT22;55741;53.252;5.788;2022-10-16T12:47:36;17.70;99.90
54124;DHT22;55741;53.252;5.788;2022-10-16T12:50:03;17.70;99.90
54124;DHT22;55741;53.252;5.788;2022-10-16T12:52:37;17.60;99.90
54124;DHT22;55741;53.252;5.788;2022-10-16T12:55:05;17.60;99.90
54124;DHT22;55741;53.252;5.788;2022-10-16T12:57:55;17.60;99.90
54124;DHT22;55741;53.252;5.788;2022-10-16T13:03:28;17.50;99.90
54124;DHT22;55741;53.252;5.788;2022-10-16T13:12:10;17.30;99.90
54124;DHT22;55741;53.252;5.788;2022-10-16T13:15:04;17.20;99.90
54124;DHT22;55741;53.252;5.788;2022-10-16T13:17:56;17.10;99.90
54124;DHT22;55741;53.252;5.788;2022-10-16T13:23:29;17.10;99.90
54124;DHT22;55741;53.252;5.788;2022-10-16T13:26:09;17.00;99.90
54124;DHT22;55741;53.252;5.788;2022-10-16T13:28:37;16.90;99.90
54124;DHT22;55741;53.252;5.788;2022-10-16T13:31:04;16.80;99.90
54124;DHT22;55741;53.252;5.788;2022-10-16T13:33:34;16.70;99.90
54124;DHT22;55741;53.252;5.788;2022-10-16T13:36:03;16.50;99.90
54124;DHT22;55741;53.252;5.788;2022-10-16T13:38:34;16.40;99.90
54124;DHT22;55741;53.252;5.788;2022-10-16T13:41:02;16.30;99.90
54124;DHT22;55741;53.252;5.788;2022-10-16T13:43:34;16.20;99.90
54124;DHT22;55741;53.252;5.788;2022-10-16T13:46:12;16.10;99.90
54124;DHT22;55741;53.252;5.788;2022-10-16T13:48:39;16.10;99.90
54124;DHT22;55741;53.252;5.788;2022-10-16T13:53:34;16.10;99.90
54124;DHT22;55741;53.252;5.788;2022-10-16T13:56:02;16.10;99.90
54124;DHT22;55741;53.252;5.788;2022-10-16T13:58:30;16.00;99.90
54124;DHT22;55741;53.252;5.788;2022-10-16T14:00:58;16.00;99.90
54124;DHT22;55741;53.252;5.788;2022-10-16T14:03:35;16.00;99.90
54124;DHT22;55741;53.252;5.788;2022-10-16T14:06:03;16.00;99.90
54124;DHT22;55741;53.252;5.788;2022-10-16T14:08:30;16.00;99.90
54124;DHT22;55741;53.252;5.788;2022-10-16T14:10:58;16.00;99.90
54124;DHT22;55741;53.252;5.788;2022-10-16T14:13:36;16.00;99.90
54124;DHT22;55741;53.252;5.788;2022-10-16T14:16:08;16.00;99.90
54124;DHT22;55741;53.252;5.788;2022-10-16T14:18:35;16.00;99.90
54124;DHT22;55741;53.252;5.788;2022-10-16T14:21:05;16.00;99.90
54124;DHT22;55741;53.252;5.788;2022-10-16T14:23:37;16.00;99.90
54124;DHT22;55741;53.252;5.788;2022-10-16T14:26:13;15.90;99.90
54124;DHT22;55741;53.252;5.788;2022-10-16T14:28:40;15.90;99.90
54124;DHT22;55741;53.252;5.788;2022-10-16T14:31:26;15.80;99.90
54124;DHT22;55741;53.252;5.788;2022-10-16T14:33:52;15.80;99.90
54124;DHT22;55741;53.252;5.788;2022-10-16T14:36:18;15.70;99.90
54124;DHT22;55741;53.252;5.788;2022-10-16T14:41:23;15.70;99.90
54124;DHT22;55741;53.252;5.788;2022-10-16T14:43:54;15.70;99.90
54124;DHT22;55741;53.252;5.788;2022-10-16T14:46:34;15.60;99.90
54124;DHT22;55741;53.252;5.788;2022-10-16T14:49:04;15.60;99.90
54124;DHT22;55741;53.252;5.788;2022-10-16T14:51:39;15.50;99.90
54124;DHT22;55741;53.252;5.788;2022-10-16T14:54:11;15.50;99.90
54124;DHT22;55741;53.252;5.788;2022-10-16T14:56:48;15.50;99.90
54124;DHT22;55741;53.252;5.788;2022-10-16T14:59:32;15.40;99.90
54124;DHT22;55741;53.252;5.788;2022-10-16T15:01:59;15.30;99.90
54124;DHT22;55741;53.252;5.788;2022-10-16T15:04:26;15.30;99.90
54124;DHT22;55741;53.252;5.788;2022-10-16T15:06:52;15.20;99.90
54124;DHT22;55741;53.252;5.788;2022-10-16T15:09:18;15.20;99.90
54124;DHT22;55741;53.252;5.788;2022-10-16T15:11:43;15.10;99.90
54124;DHT22;55741;53.252;5.788;2022-10-16T15:14:12;15.10;99.90
54124;DHT22;55741;53.252;5.788;2022-10-16T15:16:39;15.10;99.90
54124;DHT22;55741;53.252;5.788;2022-10-16T15:19:05;15.00;99.90
54124;DHT22;55741;53.252;5.788;2022-10-16T15:21:32;15.00;99.90
54124;DHT22;55741;53.252;5.788;2022-10-16T15:23:59;15.00;99.90
54124;DHT22;55741;53.252;5.788;2022-10-16T15:26:29;15.00;99.90
54124;DHT22;55741;53.252;5.788;2022-10-16T15:28:56;14.90;99.90
54124;DHT22;55741;53.252;5.788;2022-10-16T15:31:22;14.90;99.90
54124;DHT22;55741;53.252;5.788;2022-10-16T15:33:52;14.90;99.90
54124;DHT22;55741;53.252;5.788;2022-10-16T15:36:28;14.80;99.90
54124;DHT22;55741;53.252;5.788;2022-10-16T15:38:56;14.80;99.90
54124;DHT22;55741;53.252;5.788;2022-10-16T15:41:22;14.80;99.90
54124;DHT22;55741;53.252;5.788;2022-10-16T15:43:49;14.70;99.90
54124;DHT22;55741;53.252;5.788;2022-10-16T15:46:18;14.70;99.90
54124;DHT22;55741;53.252;5.788;2022-10-16T15:48:44;14.70;99.90
54124;DHT22;55741;53.252;5.788;2022-10-16T15:51:10;14.60;99.90
54124;DHT22;55741;53.252;5.788;2022-10-16T15:53:37;14.60;99.90
54124;DHT22;55741;53.252;5.788;2022-10-16T15:56:04;14.60;99.90
54124;DHT22;55741;53.252;5.788;2022-10-16T15:58:31;14.50;99.90
54124;DHT22;55741;53.252;5.788;2022-10-16T16:00:59;14.50;99.90
54124;DHT22;55741;53.252;5.788;2022-10-16T16:03:32;14.50;99.90
54124;DHT22;55741;53.252;5.788;2022-10-16T16:06:03;14.40;99.90
54124;DHT22;55741;53.252;5.788;2022-10-16T16:08:29;14.40;99.90
54124;DHT22;55741;53.252;5.788;2022-10-16T16:11:03;14.30;99.90
54124;DHT22;55741;53.252;5.788;2022-10-16T16:13:29;14.30;99.90
54124;DHT22;55741;53.252;5.788;2022-10-16T16:15:55;14.30;99.90
54124;DHT22;55741;53.252;5.788;2022-10-16T16:18:21;14.30;99.90
54124;DHT22;55741;53.252;5.788;2022-10-16T16:20:48;14.20;99.90
54124;DHT22;55741;53.252;5.788;2022-10-16T16:23:14;14.20;99.90
54124;DHT22;55741;53.252;5.788;2022-10-16T16:25:40;14.10;99.90
54124;DHT22;55741;53.252;5.788;2022-10-16T16:28:06;14.10;99.90
54124;DHT22;55741;53.252;5.788;2022-10-16T16:30:32;14.00;99.90
54124;DHT22;55741;53.252;5.788;2022-10-16T16:32:58;14.00;99.90
54124;DHT22;55741;53.252;5.788;2022-10-16T16:35:24;14.00;99.90
54124;DHT22;55741;53.252;5.788;2022-10-16T16:37:50;13.90;99.90
54124;DHT22;55741;53.252;5.788;2022-10-16T16:40:16;13.90;99.90
54124;DHT22;55741;53.252;5.788;2022-10-16T16:42:41;13.80;99.90
54124;DHT22;55741;53.252;5.788;2022-10-16T16:45:08;13.70;99.90
54124;DHT22;55741;53.252;5.788;2022-10-16T16:47:34;13.70;99.90
54124;DHT22;55741;53.252;5.788;2022-10-16T16:50:00;13.70;99.90
54124;DHT22;55741;53.252;5.788;2022-10-16T16:52:30;13.60;99.90
54124;DHT22;55741;53.252;5.788;2022-10-16T16:54:56;13.60;99.90
54124;DHT22;55741;53.252;5.788;2022-10-16T16:57:22;13.50;99.90
54124;DHT22;55741;53.252;5.788;2022-10-16T16:59:50;13.50;99.90
54124;DHT22;55741;53.252;5.788;2022-10-16T17:02:18;13.40;99.90
54124;DHT22;55741;53.252;5.788;2022-10-16T17:04:44;13.40;99.90
54124;DHT22;55741;53.252;5.788;2022-10-16T17:07:10;13.30;99.90
54124;DHT22;55741;53.252;5.788;2022-10-16T17:09:36;13.20;99.90
54124;DHT22;55741;53.252;5.788;2022-10-16T17:12:02;13.10;99.90